Time;durP1;ratioP1;P1;durP2;ratioP2;P2;SDS_P1;SDS_P2;PMS_P1;PMS_P2;Temp;Humidity;BMP_temperature;BMP_pressure;BME280_temperature;BME280_humidity;BME280_pressure;Samples;Min_cycle;Max_cycle;Signal;HPM_P1;HPM_P2
2023/05/24 00:00:21;;;;;;;;;;;;;;;17.24;40.31;102297.72;7355726;19;19914;-58
2023/05/24 00:02:46;;;;;;;;;;;;;;;17.21;39.93;102304.84;7349140;19;19938;-58
2023/05/24 00:05:13;;;;;;;;;;;;;;;17.17;40.09;102303.19;7351543;19;19950;-59
2023/05/24 00:07:38;;;;;;;;;;;;;;;17.14;40.50;102301.50;7352656;19;19935;-55
2023/05/24 00:10:04;;;;;;;;;;;;;;;17.10;40.89;102302.47;7350092;19;19935;-58
2023/05/24 00:12:30;;;;;;;;;;;;;;;17.06;40.52;102296.41;7354613;19;19933;-53
2023/05/24 00:14:55;;;;;;;;;;;;;;;17.03;41.14;102295.59;7348995;19;19926;-58
2023/05/24 00:17:21;;;;;;;;;;;;;;;16.98;40.83;102292.19;7352683;19;19954;-58
2023/05/24 00:19:46;;;;;;;;;;;;;;;16.95;41.42;102287.00;7351656;19;19914;-58
2023/05/24 00:22:12;;;;;;;;;;;;;;;16.92;41.21;102300.28;7352779;19;19926;-58
2023/05/24 00:24:38;;;;;;;;;;;;;;;16.86;41.49;102294.22;7352174;19;19922;-58
2023/05/24 00:27:03;;;;;;;;;;;;;;;16.83;41.27;102296.97;7353525;19;19943;-58
2023/05/24 00:29:28;;;;;;;;;;;;;;;16.79;41.58;102292.66;7347235;19;19923;-58
2023/05/24 00:31:54;;;;;;;;;;;;;;;16.75;41.36;102296.25;7353446;19;20760;-58
2023/05/24 00:34:19;;;;;;;;;;;;;;;16.70;41.40;102282.28;7350071;19;19926;-58
2023/05/24 00:36:45;;;;;;;;;;;;;;;16.65;41.52;102288.56;7354295;19;20359;-58
2023/05/24 00:39:10;;;;;;;;;;;;;;;16.61;41.56;102282.47;7347509;19;19926;-59
2023/05/24 00:41:35;;;;;;;;;;;;;;;16.56;41.51;102279.06;7352503;19;19935;-58
2023/05/24 00:44:01;;;;;;;;;;;;;;;16.51;41.73;102280.94;7345465;19;20237;-58
2023/05/24 00:46:27;;;;;;;;;;;;;;;16.46;41.36;102281.03;7348563;19;20481;-58
2023/05/24 00:48:53;;;;;;;;;;;;;;;16.41;41.76;102279.41;7347362;19;20969;-58
2023/05/24 00:51:18;;;;;;;;;;;;;;;16.35;41.36;102286.56;7350775;19;19919;-59
2023/05/24 00:53:44;;;;;;;;;;;;;;;16.30;41.43;102271.75;7352579;19;19923;-58
2023/05/24 00:56:11;;;;;;;;;;;;;;;16.26;41.37;102273.56;7347719;19;19939;-58
2023/05/24 00:58:36;;;;;;;;;;;;;;;16.21;41.47;102270.16;7351535;19;20601;-58
2023/05/24 01:01:02;;;;;;;;;;;;;;;16.18;41.79;102266.75;7350822;19;19911;-58
2023/05/24 01:03:29;;;;;;;;;;;;;;;16.13;41.70;102269.47;7347850;19;19935;-54
2023/05/24 01:05:58;;;;;;;;;;;;;;;16.09;41.41;102267.78;7347294;19;20496;-58
2023/05/24 01:08:26;;;;;;;;;;;;;;;16.04;41.41;102265.25;7349438;19;19949;-58
2023/05/24 01:10:58;;;;;;;;;;;;;;;15.99;41.70;102268.88;7351867;19;19922;-58
2023/05/24 01:13:30;;;;;;;;;;;;;;;15.95;41.52;102264.56;7351234;19;19919;-58
2023/05/24 01:15:59;;;;;;;;;;;;;;;15.89;41.55;102264.69;7350942;19;19926;-58
2023/05/24 01:18:32;;;;;;;;;;;;;;;15.85;41.61;102263.00;7346470;19;19923;-58
2023/05/24 01:21:10;;;;;;;;;;;;;;;15.79;41.57;102253.47;7346396;19;19951;-58
2023/05/24 01:23:50;;;;;;;;;;;;;;;15.33;41.65;102180.59;7351533;19;19922;-57
2023/05/24 01:26:30;;;;;;;;;;;;;;;15.68;41.67;102251.03;7348310;19;19975;-59
2023/05/24 01:28:56;;;;;;;;;;;;;;;15.63;41.35;102252.00;7356134;19;19922;-57
2023/05/24 01:31:21;;;;;;;;;;;;;;;15.57;42.25;102252.97;7350670;19;20722;-57
2023/05/24 01:33:47;;;;;;;;;;;;;;;15.52;41.79;102250.44;7358134;19;19926;-58
2023/05/24 01:36:12;;;;;;;;;;;;;;;15.48;42.29;102248.75;7355840;19;19939;-58
2023/05/24 01:38:38;;;;;;;;;;;;;;;15.43;42.29;102244.47;7354426;19;19939;-58
2023/05/24 01:41:09;;;;;;;;;;;;;;;15.39;42.06;102248.03;7355896;19;19930;-58
2023/05/24 01:43:39;;;;;;;;;;;;;;;15.35;42.05;102246.34;7354862;19;20650;-58
2023/05/24 01:46:23;;;;;;;;;;;;;;;15.31;42.28;102251.69;7348745;19;19918;-58
2023/05/24 01:49:02;;;;;;;;;;;;;;;15.28;42.26;102250.88;7357051;19;19922;-58
2023/05/24 01:51:31;;;;;;;;;;;;;;;15.24;42.68;102255.31;7355137;19;19918;-58
2023/05/24 01:53:57;;;;;;;;;;;;;;;15.20;42.15;102248.34;7350630;19;19935;-58
2023/05/24 01:56:25;;;;;;;;;;;;;;;15.17;42.23;102247.56;7354538;19;20748;-58
2023/05/24 01:58:51;;;;;;;;;;;;;;;15.12;41.96;102246.78;7345984;19;20753;-58
2023/05/24 02:01:17;;;;;;;;;;;;;;;15.07;42.32;102236.31;7357032;19;19915;-58
2023/05/24 02:03:42;;;;;;;;;;;;;;;15.01;41.38;102236.44;7355222;19;20677;-59
2023/05/24 02:06:07;;;;;;;;;;;;;;;14.95;41.65;102232.13;7349502;19;19982;-58
2023/05/24 02:08:32;;;;;;;;;;;;;;;14.91;42.54;102235.72;7357191;19;19926;-58
2023/05/24 02:10:58;;;;;;;;;;;;;;;14.85;42.39;102230.56;7358399;19;19919;-58
2023/05/24 02:13:23;;;;;;;;;;;;;;;14.82;42.63;102234.97;7352164;19;20472;-57
2023/05/24 02:15:50;;;;;;;;;;;;;;;14.78;41.84;102239.41;7357205;19;19922;-58
2023/05/24 02:18:17;;;;;;;;;;;;;;;14.73;42.52;102236.84;7347949;19;19911;-58
2023/05/24 02:20:42;;;;;;;;;;;;;;;14.68;43.09;102241.31;7352947;19;19919;-58
2023/05/24 02:23:08;;;;;;;;;;;;;;;14.65;43.15;102244.00;7359133;19;19974;-59
2023/05/24 02:25:33;;;;;;;;;;;;;;;14.61;42.89;102252.81;7354635;19;19953;-58
2023/05/24 02:27:58;;;;;;;;;;;;;;;14.59;42.60;102248.47;7352059;19;20682;-58
2023/05/24 02:30:24;;;;;;;;;;;;;;;14.54;43.01;102244.13;7356745;19;19918;-58
2023/05/24 02:32:49;;;;;;;;;;;;;;;14.51;43.33;102240.72;7357328;19;19923;-58
2023/05/24 02:35:15;;;;;;;;;;;;;;;14.49;43.47;102247.72;7353311;19;20614;-58
2023/05/24 02:37:40;;;;;;;;;;;;;;;14.45;43.39;102246.03;7356794;19;19926;-57
2023/05/24 02:40:06;;;;;;;;;;;;;;;14.42;43.26;102248.69;7350464;19;19914;-58
2023/05/24 02:42:31;;;;;;;;;;;;;;;14.40;43.86;102253.09;7353210;19;19949;-58
2023/05/24 02:44:57;;;;;;;;;;;;;;;14.37;43.70;102248.75;7355590;19;19923;-58
2023/05/24 02:47:22;;;;;;;;;;;;;;;14.34;42.94;102254.03;7357970;19;20643;-55
2023/05/24 02:49:47;;;;;;;;;;;;;;;14.31;43.71;102254.09;7357298;19;19927;-58
2023/05/24 02:52:13;;;;;;;;;;;;;;;14.28;44.16;102256.75;7354863;19;19926;-58
2023/05/24 02:54:38;;;;;;;;;;;;;;;14.25;43.94;102249.78;7358193;19;19915;-58
2023/05/24 02:57:05;;;;;;;;;;;;;;;14.23;44.46;102256.81;7348867;19;19926;-59
2023/05/24 02:59:31;;;;;;;;;;;;;;;14.20;44.24;102262.13;7358002;19;19922;-58
2023/05/24 03:01:56;;;;;;;;;;;;;;;14.18;44.42;102257.75;7355654;19;19950;-58
2023/05/24 03:04:21;;;;;;;;;;;;;;;14.14;44.25;102256.94;7335642;19;19927;-58
2023/05/24 03:06:47;;;;;;;;;;;;;;;14.12;43.60;102263.97;7359484;19;19919;-59
2023/05/24 03:09:12;;;;;;;;;;;;;;;14.08;43.98;102271.88;7358004;19;20478;-58
2023/05/24 03:11:37;;;;;;;;;;;;;;;14.05;43.40;102272.81;7356140;19;19958;-58
2023/05/24 03:14:02;;;;;;;;;;;;;;;14.01;43.95;102265.84;7355878;19;19950;-58
2023/05/24 03:16:28;;;;;;;;;;;;;;;13.98;44.06;102276.38;7335653;19;21208;-58
2023/05/24 03:18:55;;;;;;;;;;;;;;;13.93;44.00;102276.44;7355105;19;20430;-58
2023/05/24 03:21:20;;;;;;;;;;;;;;;13.90;44.42;102270.38;7352580;19;19919;-59
2023/05/24 03:23:45;;;;;;;;;;;;;;;13.87;44.27;102278.28;7351871;19;19915;-58
2023/05/24 03:26:12;;;;;;;;;;;;;;;13.83;43.75;102287.06;7354160;19;20043;-58
2023/05/24 03:28:37;;;;;;;;;;;;;;;13.79;43.84;102280.09;7357571;19;19930;-58
2023/05/24 03:31:03;;;;;;;;;;;;;;;13.74;44.10;102278.41;7356484;19;19938;-58
2023/05/24 03:33:28;;;;;;;;;;;;;;;13.70;43.70;102271.44;7351554;19;19927;-57
2023/05/24 03:35:53;;;;;;;;;;;;;;;13.67;43.86;102281.97;7358530;19;19915;-58
2023/05/24 03:38:18;;;;;;;;;;;;;;;13.62;43.91;102268.03;7357518;19;19954;-58
2023/05/24 03:40:44;;;;;;;;;;;;;;;13.59;43.77;102281.19;7356194;19;20113;-58
2023/05/24 03:43:09;;;;;;;;;;;;;;;13.54;43.78;102280.38;7352589;19;20453;-59
2023/05/24 03:45:35;;;;;;;;;;;;;;;13.52;44.16;102281.25;7356437;19;20005;-58
2023/05/24 03:48:00;;;;;;;;;;;;;;;13.47;44.32;102283.91;7349136;19;19931;-58
2023/05/24 03:50:25;;;;;;;;;;;;;;;13.45;44.11;102280.47;7355310;19;19935;-58
2023/05/24 03:52:51;;;;;;;;;;;;;;;13.39;44.14;102281.38;7356166;19;19919;-57
2023/05/24 03:55:17;;;;;;;;;;;;;;;13.36;44.51;102286.66;7356058;19;20351;-58
2023/05/24 03:57:42;;;;;;;;;;;;;;;13.09;44.32;102250.13;7353764;19;19926;-58
2023/05/24 04:00:08;;;;;;;;;;;;;;;13.30;44.03;102291.09;7356361;19;19926;-58
2023/05/24 04:02:36;;;;;;;;;;;;;;;13.27;43.55;102285.84;7352567;19;20338;-58
2023/05/24 04:05:02;;;;;;;;;;;;;;;13.24;44.16;102294.63;7355272;19;19958;-58
2023/05/24 04:07:32;;;;;;;;;;;;;;;13.21;43.81;102285.03;7348155;19;20387;-58
2023/05/24 04:09:58;;;;;;;;;;;;;;;13.19;43.97;102278.03;7357242;19;19927;-58
2023/05/24 04:12:23;;;;;;;;;;;;;;;13.14;43.69;102278.06;7354950;19;19926;-58
2023/05/24 04:14:48;;;;;;;;;;;;;;;13.11;44.26;102280.69;7358352;19;20288;-58
2023/05/24 04:17:14;;;;;;;;;;;;;;;13.09;44.56;102279.00;7357683;19;19911;-58
2023/05/24 04:19:39;;;;;;;;;;;;;;;13.05;44.55;102278.13;7357190;19;19997;-58
2023/05/24 04:22:04;;;;;;;;;;;;;;;13.03;44.71;102277.28;7353482;19;19921;-57
2023/05/24 04:24:29;;;;;;;;;;;;;;;13.00;44.50;102287.78;7358321;19;20357;-57
2023/05/24 04:26:57;;;;;;;;;;;;;;;12.98;44.88;102284.31;7351454;19;20712;-58
2023/05/24 04:29:25;;;;;;;;;;;;;;;12.95;44.96;102292.19;7356667;19;20018;-58
2023/05/24 04:31:51;;;;;;;;;;;;;;;12.92;44.84;102293.06;7355343;19;19926;-58
2023/05/24 04:34:16;;;;;;;;;;;;;;;12.90;45.22;102292.22;7358462;19;20854;-58
2023/05/24 04:36:41;;;;;;;;;;;;;;;12.89;45.53;102297.50;7351655;19;19933;-58
2023/05/24 04:39:06;;;;;;;;;;;;;;;12.86;45.22;102297.50;7352636;19;19926;-58
2023/05/24 04:41:34;;;;;;;;;;;;;;;12.76;44.92;102294.06;7354332;19;19919;-54
2023/05/24 04:43:59;;;;;;;;;;;;;;;12.83;45.77;102305.41;7356401;19;19915;-58
2023/05/24 04:46:25;;;;;;;;;;;;;;;12.79;45.00;102298.44;7349949;19;19945;-58
2023/05/24 04:48:51;;;;;;;;;;;;;;;12.77;45.26;102300.16;7350800;19;19922;-58
2023/05/24 04:51:16;;;;;;;;;;;;;;;12.75;45.55;102296.69;7351932;19;19929;-58
2023/05/24 04:53:41;;;;;;;;;;;;;;;12.72;45.38;102298.47;7356296;19;19911;-58
2023/05/24 04:56:07;;;;;;;;;;;;;;;12.71;45.52;102296.72;7353058;19;19922;-57
2023/05/24 04:58:33;;;;;;;;;;;;;;;12.68;45.13;102299.38;7350442;19;19927;-57
2023/05/24 05:00:59;;;;;;;;;;;;;;;12.63;45.37;102293.28;7354733;19;19975;-58
2023/05/24 05:03:25;;;;;;;;;;;;;;;12.67;45.44;102310.72;7358598;19;19919;-58
2023/05/24 05:05:50;;;;;;;;;;;;;;;12.66;45.70;102305.47;7359569;19;19936;-58
2023/05/24 05:08:15;;;;;;;;;;;;;;;12.65;46.46;102307.22;7359543;19;19926;-58
2023/05/24 05:10:41;;;;;;;;;;;;;;;12.64;45.78;102310.75;7359908;19;19941;-58
2023/05/24 05:13:06;;;;;;;;;;;;;;;12.64;46.15;102310.75;7357832;19;19929;-58
2023/05/24 05:15:32;;;;;;;;;;;;;;;12.64;46.20;102321.22;7362866;19;19910;-58
2023/05/24 05:17:57;;;;;;;;;;;;;;;12.64;46.48;102315.97;7360501;19;19921;-58
2023/05/24 05:20:23;;;;;;;;;;;;;;;12.63;46.08;102309.00;7360120;19;19915;-58
2023/05/24 05:22:48;;;;;;;;;;;;;;;12.63;46.68;102319.50;7360039;19;19923;-59
2023/05/24 05:25:14;;;;;;;;;;;;;;;12.64;46.79;102318.59;7358376;19;19919;-58
2023/05/24 05:27:39;;;;;;;;;;;;;;;12.64;46.30;102325.59;7360661;19;19926;-59
2023/05/24 05:30:05;;;;;;;;;;;;;;;12.65;46.46;102325.56;7361701;19;19918;-58
2023/05/24 05:32:31;;;;;;;;;;;;;;;12.65;46.66;102328.19;7357652;19;19926;-58
2023/05/24 05:34:56;;;;;;;;;;;;;;;12.65;46.56;102328.19;7357663;19;19923;-58
2023/05/24 05:37:21;;;;;;;;;;;;;;;12.66;46.83;102327.31;7361496;19;19934;-58
2023/05/24 05:39:46;;;;;;;;;;;;;;;12.66;46.81;102324.69;7358851;19;19933;-59
2023/05/24 05:42:12;;;;;;;;;;;;;;;12.67;47.61;102336.94;7359569;19;19927;-58
2023/05/24 05:44:37;;;;;;;;;;;;;;;12.67;47.37;102336.94;7358582;19;19918;-58
2023/05/24 05:47:03;;;;;;;;;;;;;;;12.69;47.50;102335.19;7360114;19;19943;-58
2023/05/24 05:49:30;;;;;;;;;;;;;;;12.71;47.17;102333.41;7348679;19;19943;-58
2023/05/24 05:51:55;;;;;;;;;;;;;;;12.73;47.08;102338.66;7363152;19;19918;-58
2023/05/24 05:54:21;;;;;;;;;;;;;;;12.49;47.59;102286.38;7358500;19;20292;-58
2023/05/24 05:56:46;;;;;;;;;;;;;;;12.78;47.53;102333.41;7360066;19;19935;-58
2023/05/24 05:59:13;;;;;;;;;;;;;;;12.80;47.53;102336.88;7341300;19;19929;-58
2023/05/24 06:01:38;;;;;;;;;;;;;;;12.80;47.67;102332.50;7358223;19;19935;-58
2023/05/24 06:04:04;;;;;;;;;;;;;;;12.84;47.68;102341.22;7355355;19;19927;-58
2023/05/24 06:06:29;;;;;;;;;;;;;;;12.87;47.71;102343.81;7355842;19;19938;-58
2023/05/24 06:08:54;;;;;;;;;;;;;;;12.87;47.54;102343.81;7354294;19;19956;-58
2023/05/24 06:11:20;;;;;;;;;;;;;;;12.90;48.18;102341.19;7352257;19;20430;-58
2023/05/24 06:13:45;;;;;;;;;;;;;;;12.93;48.12;102341.16;7353075;19;19940;-57
2023/05/24 06:16:10;;;;;;;;;;;;;;;12.95;48.17;102339.41;7358843;19;19927;-58
2023/05/24 06:18:35;;;;;;;;;;;;;;;12.98;48.05;102342.00;7352258;19;19935;-58
2023/05/24 06:21:01;;;;;;;;;;;;;;;13.00;48.13;102340.25;7356049;19;19917;-58
2023/05/24 06:23:26;;;;;;;;;;;;;;;13.03;48.22;102345.47;7354684;19;19911;-58
2023/05/24 06:25:51;;;;;;;;;;;;;;;13.06;48.68;102345.44;7356277;19;19915;-58
2023/05/24 06:28:17;;;;;;;;;;;;;;;13.09;48.75;102339.31;7352056;19;19923;-58
2023/05/24 06:30:42;;;;;;;;;;;;;;;13.11;48.54;102346.28;7356287;19;20757;-58
2023/05/24 06:33:07;;;;;;;;;;;;;;;13.13;48.89;102347.16;7355579;19;19926;-58
2023/05/24 06:35:32;;;;;;;;;;;;;;;13.17;48.98;102343.59;7354952;19;19930;-58
2023/05/24 06:37:58;;;;;;;;;;;;;;;13.20;48.79;102348.84;7352423;19;19923;-58
2023/05/24 06:40:23;;;;;;;;;;;;;;;13.23;49.12;102354.09;7351499;19;20236;-58
2023/05/24 06:42:48;;;;;;;;;;;;;;;13.27;49.01;102343.56;7332959;19;19929;-58
2023/05/24 06:45:14;;;;;;;;;;;;;;;13.30;48.94;102340.94;7357784;19;20713;-58
2023/05/24 06:47:40;;;;;;;;;;;;;;;13.34;49.15;102347.91;7354334;19;19949;-56
2023/05/24 06:50:05;;;;;;;;;;;;;;;13.38;49.44;102357.47;7340170;19;19934;-56
2023/05/24 06:52:30;;;;;;;;;;;;;;;13.41;49.26;102352.22;7357577;19;19935;-55
2023/05/24 06:54:56;;;;;;;;;;;;;;;13.46;49.71;102361.78;7356736;19;20351;-54
2023/05/24 06:57:21;;;;;;;;;;;;;;;13.51;49.58;102359.13;7356677;19;19929;-56
2023/05/24 06:59:46;;;;;;;;;;;;;;;13.56;49.68;102367.84;7354094;19;19915;-56
2023/05/24 07:02:12;;;;;;;;;;;;;;;13.61;49.58;102366.03;7356145;19;19931;-55
2023/05/24 07:04:39;;;;;;;;;;;;;;;13.66;49.31;102366.88;7353625;19;19926;-56
2023/05/24 07:07:05;;;;;;;;;;;;;;;13.73;50.21;102371.16;7358585;19;20377;-56
2023/05/24 07:09:30;;;;;;;;;;;;;;;13.80;50.18;102371.13;7354367;19;19918;-56
2023/05/24 07:11:56;;;;;;;;;;;;;;;13.87;49.96;102370.19;7359284;19;19915;-56
2023/05/24 07:14:22;;;;;;;;;;;;;;;13.93;49.97;102370.97;7353822;19;19918;-55
2023/05/24 07:16:48;;;;;;;;;;;;;;;14.00;50.06;102374.44;7355492;19;19919;-56
2023/05/24 07:19:14;;;;;;;;;;;;;;;14.10;49.90;102372.59;7358090;19;20316;-56
2023/05/24 07:21:39;;;;;;;;;;;;;;;14.17;50.07;102361.97;7359729;19;19919;-56
2023/05/24 07:24:04;;;;;;;;;;;;;;;14.25;49.57;102365.41;7352690;19;19915;-56
2023/05/24 07:26:30;;;;;;;;;;;;;;;14.33;49.66;102372.31;7359900;19;19922;-55
2023/05/24 07:28:55;;;;;;;;;;;;;;;14.41;49.76;102359.97;7352975;19;19918;-56
2023/05/24 07:31:21;;;;;;;;;;;;;;;14.48;50.39;102366.91;7334466;19;20614;-56
2023/05/24 07:33:47;;;;;;;;;;;;;;;14.56;49.92;102374.72;7341236;19;20779;-56
2023/05/24 07:36:12;;;;;;;;;;;;;;;14.62;49.83;102375.50;7343890;19;19942;-56
2023/05/24 07:38:37;;;;;;;;;;;;;;;14.70;49.73;102378.91;7348725;19;20279;-56
2023/05/24 07:41:03;;;;;;;;;;;;;;;14.81;49.70;102383.16;7356838;19;20793;-56
2023/05/24 07:43:29;;;;;;;;;;;;;;;14.90;49.56;102380.38;7354730;19;20531;-56
2023/05/24 07:45:54;;;;;;;;;;;;;;;15.01;49.83;102386.38;7357537;19;19919;-57
2023/05/24 07:48:20;;;;;;;;;;;;;;;15.12;50.24;102387.09;7357408;19;20734;-56
2023/05/24 07:50:47;;;;;;;;;;;;;;;15.21;49.88;102397.50;7356297;19;19970;-56
2023/05/24 07:53:15;;;;;;;;;;;;;;;15.32;49.91;102392.94;7355398;19;19919;-56
2023/05/24 07:55:40;;;;;;;;;;;;;;;15.46;50.15;102402.34;7357091;19;19929;-56
2023/05/24 07:58:05;;;;;;;;;;;;;;;15.55;50.14;102395.19;7357336;19;19926;-56
2023/05/24 08:00:32;;;;;;;;;;;;;;;15.66;49.65;102388.91;7355867;19;19922;-54
2023/05/24 08:02:58;;;;;;;;;;;;;;;15.76;50.09;102396.66;7357987;19;19918;-55
2023/05/24 08:05:23;;;;;;;;;;;;;;;15.87;49.78;102407.00;7356233;19;19915;-57
2023/05/24 08:07:48;;;;;;;;;;;;;;;15.97;50.28;102405.06;7355115;19;19948;-54
2023/05/24 08:10:14;;;;;;;;;;;;;;;16.08;50.10;102403.09;7354366;19;19978;-57
2023/05/24 08:12:40;;;;;;;;;;;;;;;16.19;49.66;102406.41;7355789;19;19910;-56
2023/05/24 08:15:06;;;;;;;;;;;;;;;16.32;49.71;102405.28;7354936;19;19922;-57
2023/05/24 08:17:31;;;;;;;;;;;;;;;16.45;49.91;102405.88;7355365;19;19934;-55
2023/05/24 08:19:56;;;;;;;;;;;;;;;16.59;49.71;102410.91;7353986;19;19930;-57
2023/05/24 08:22:22;;;;;;;;;;;;;;;16.72;49.61;102407.13;7356500;19;20321;-56
2023/05/24 08:24:47;;;;;;;;;;;;;;;16.85;49.57;102413.88;7351012;19;20548;-56
2023/05/24 08:27:13;;;;;;;;;;;;;;;16.98;49.49;102408.31;7352947;19;20091;-56
2023/05/24 08:29:38;;;;;;;;;;;;;;;17.10;49.15;102402.78;7355022;19;19926;-57
2023/05/24 08:32:08;;;;;;;;;;;;;;;17.22;49.12;102406.91;7348689;19;19966;-56
2023/05/24 08:34:35;;;;;;;;;;;;;;;17.32;48.99;102397.88;7353881;19;19914;-57
2023/05/24 08:37:00;;;;;;;;;;;;;;;17.40;49.22;102409.13;7348942;19;19938;-56
2023/05/24 08:39:26;;;;;;;;;;;;;;;17.46;48.55;102410.75;7351228;19;19918;-56
2023/05/24 08:41:51;;;;;;;;;;;;;;;17.12;48.60;102350.81;7352036;19;19948;-57
2023/05/24 08:44:17;;;;;;;;;;;;;;;17.50;48.64;102412.41;7352682;19;19930;-56
2023/05/24 08:46:42;;;;;;;;;;;;;;;17.51;48.78;102411.50;7353290;19;19921;-56
2023/05/24 08:49:11;;;;;;;;;;;;;;;17.54;48.58;102403.50;7349888;19;19932;-56
2023/05/24 08:51:38;;;;;;;;;;;;;;;17.57;48.74;102408.69;7351961;19;20388;-56
2023/05/24 08:54:04;;;;;;;;;;;;;;;17.60;48.58;102404.22;7353831;19;20719;-56
2023/05/24 08:56:29;;;;;;;;;;;;;;;17.65;48.50;102401.47;7353043;19;19919;-57
2023/05/24 08:58:55;;;;;;;;;;;;;;;17.70;48.80;102398.72;7350687;19;19930;-56
2023/05/24 09:01:22;;;;;;;;;;;;;;;17.74;48.57;102400.38;7350103;19;19940;-57
2023/05/24 09:03:49;;;;;;;;;;;;;;;17.81;48.70;102400.19;7355255;19;19922;-58
2023/05/24 09:06:15;;;;;;;;;;;;;;;17.88;48.35;102401.75;7352260;19;19985;-58
2023/05/24 09:08:41;;;;;;;;;;;;;;;17.96;48.67;102396.28;7350743;19;19942;-58
2023/05/24 09:11:07;;;;;;;;;;;;;;;18.07;48.56;102398.66;7355994;19;19922;-58
2023/05/24 09:13:33;;;;;;;;;;;;;;;18.16;48.36;102393.13;7355243;19;19919;-59
2023/05/24 09:15:59;;;;;;;;;;;;;;;17.91;48.22;102333.88;7354793;19;19918;-58
2023/05/24 09:18:24;;;;;;;;;;;;;;;18.35;48.39;102393.47;7347560;19;19935;-58
2023/05/24 09:20:49;;;;;;;;;;;;;;;18.44;48.45;102393.19;7354757;19;19919;-57
2023/05/24 09:23:15;;;;;;;;;;;;;;;18.54;48.19;102383.22;7354831;19;19922;-58
2023/05/24 09:25:44;;;;;;;;;;;;;;;18.63;48.25;102382.94;7356585;19;20182;-57
2023/05/24 09:28:12;;;;;;;;;;;;;;;18.71;48.07;102388.06;7353043;19;19926;-57
2023/05/24 09:30:37;;;;;;;;;;;;;;;18.78;47.65;102387.81;7353568;19;19915;-58
2023/05/24 09:33:04;;;;;;;;;;;;;;;18.84;47.92;102379.69;7353217;19;19923;-58
2023/05/24 09:35:30;;;;;;;;;;;;;;;18.90;48.06;102387.44;7355324;19;19925;-58
2023/05/24 09:37:58;;;;;;;;;;;;;;;19.02;47.73;102385.34;7353585;19;19923;-58
2023/05/24 09:40:25;;;;;;;;;;;;;;;19.10;47.86;102383.31;7346395;19;19915;-58
2023/05/24 09:43:01;;;;;;;;;;;;;;;19.20;47.45;102379.44;7349829;19;19919;-57
2023/05/24 09:45:26;;;;;;;;;;;;;;;19.28;47.77;102388.03;7344646;19;19919;-55
2023/05/24 09:47:51;;;;;;;;;;;;;;;19.38;47.62;102394.75;7352351;19;19925;-57
2023/05/24 09:50:17;;;;;;;;;;;;;;;19.50;47.18;102390.84;7355463;19;19927;-57
2023/05/24 09:52:42;;;;;;;;;;;;;;;19.58;47.58;102396.75;7359443;19;19971;-59
2023/05/24 09:55:14;;;;;;;;;;;;;;;19.64;47.29;102385.97;7351840;19;19919;-58
2023/05/24 09:57:40;;;;;;;;;;;;;;;19.71;46.79;102394.56;7358275;19;19918;-57
2023/05/24 10:00:13;;;;;;;;;;;;;;;19.75;47.06;102393.56;7357516;19;19919;-58
2023/05/24 10:02:38;;;;;;;;;;;;;;;19.79;47.17;102386.38;7354575;19;19914;-57
2023/05/24 10:05:04;;;;;;;;;;;;;;;19.84;46.61;102387.94;7353175;19;19934;-58
2023/05/24 10:07:31;;;;;;;;;;;;;;;19.88;46.83;102384.28;7355864;19;20419;-57
2023/05/24 10:09:57;;;;;;;;;;;;;;;19.90;46.44;102382.44;7355290;19;20469;-57
2023/05/24 10:12:24;;;;;;;;;;;;;;;19.93;46.37;102390.28;7356718;19;19914;-57
2023/05/24 10:14:50;;;;;;;;;;;;;;;19.98;46.36;102391.91;7337884;19;19956;-57
2023/05/24 10:17:15;;;;;;;;;;;;;;;19.99;46.62;102391.84;7355099;19;19911;-57
2023/05/24 10:19:40;;;;;;;;;;;;;;;20.00;46.66;102392.72;7349475;19;19943;-57
2023/05/24 10:22:07;;;;;;;;;;;;;;;20.08;46.40;102393.31;7352830;19;19939;-58
2023/05/24 10:24:38;;;;;;;;;;;;;;;20.14;46.30;102387.78;7350772;19;20581;-57
2023/05/24 10:27:06;;;;;;;;;;;;;;;20.22;46.62;102388.38;7355772;19;19952;-57
2023/05/24 10:29:50;;;;;;;;;;;;;;;20.34;46.42;102387.94;7355709;19;19921;-58
2023/05/24 10:32:17;;;;;;;;;;;;;;;20.47;46.47;102385.72;7353920;19;19923;-57
2023/05/24 10:34:43;;;;;;;;;;;;;;;20.57;46.29;102372.97;7353688;19;20642;-57
2023/05/24 10:37:08;;;;;;;;;;;;;;;20.66;46.43;102377.94;7357366;19;20685;-57
2023/05/24 10:39:34;;;;;;;;;;;;;;;20.73;46.58;102375.00;7357013;19;19994;-56
2023/05/24 10:42:06;;;;;;;;;;;;;;;20.83;46.52;102386.09;7354838;19;20665;-57
2023/05/24 10:44:31;;;;;;;;;;;;;;;20.91;45.99;102388.47;7351067;19;19930;-58
2023/05/24 10:47:05;;;;;;;;;;;;;;;20.98;46.07;102385.53;7356400;19;19956;-57
2023/05/24 10:49:31;;;;;;;;;;;;;;;20.75;45.89;102324.47;7356151;19;19915;-57
2023/05/24 10:52:01;;;;;;;;;;;;;;;21.15;45.88;102378.66;7360021;19;19926;-57
2023/05/24 10:54:26;;;;;;;;;;;;;;;21.26;45.72;102384.41;7355776;19;19927;-57
2023/05/24 10:56:52;;;;;;;;;;;;;;;21.37;45.70;102382.19;7360261;19;19919;-58
2023/05/24 10:59:27;;;;;;;;;;;;;;;21.45;45.57;102372.13;7356608;19;19950;-57
2023/05/24 11:01:56;;;;;;;;;;;;;;;21.31;45.76;102344.41;7359923;19;19926;-58
2023/05/24 11:04:22;;;;;;;;;;;;;;;21.73;45.96;102378.94;7354872;19;20539;-57
2023/05/24 11:07:00;;;;;;;;;;;;;;;21.97;46.21;102379.66;7352897;19;19919;-57
2023/05/24 11:09:27;;;;;;;;;;;;;;;22.27;46.10;102381.00;7355933;19;19950;-58
2023/05/24 11:12:19;;;;;;;;;;;;;;;22.53;45.65;102371.81;7360337;19;19931;-58
2023/05/24 11:14:51;;;;;;;;;;;;;;;22.79;45.71;102369.72;7254199;19;2004320;-58
2023/05/24 11:17:20;;;;;;;;;;;;;;;23.04;45.25;102367.63;7360039;19;20347;-58
2023/05/24 11:19:55;;;;;;;;;;;;;;;23.27;45.37;102369.19;7357018;19;19934;-58
2023/05/24 11:22:21;;;;;;;;;;;;;;;23.54;45.46;102372.25;7352889;19;19939;-57
2023/05/24 11:24:46;;;;;;;;;;;;;;;23.84;45.46;102369.00;7354504;19;19915;-58
2023/05/24 11:27:13;;;;;;;;;;;;;;;24.16;44.93;102369.09;7355200;19;20353;-57
2023/05/24 11:29:42;;;;;;;;;;;;;;;24.50;45.07;102368.19;7355864;19;20008;-58
2023/05/24 11:32:07;;;;;;;;;;;;;;;24.90;44.88;102380.19;7353950;19;20738;-57
2023/05/24 11:34:33;;;;;;;;;;;;;;;25.30;44.62;102375.25;7356621;19;19927;-57
2023/05/24 11:36:59;;;;;;;;;;;;;;;25.60;44.05;102376.13;7353737;19;20636;-58
2023/05/24 11:39:29;;;;;;;;;;;;;;;25.87;44.00;102376.31;7348069;19;19918;-58
2023/05/24 11:41:55;;;;;;;;;;;;;;;26.10;43.49;102369.56;7354678;19;19915;-57
2023/05/24 11:44:21;;;;;;;;;;;;;;;26.35;43.38;102359.97;7353902;19;20360;-58
2023/05/24 11:46:46;;;;;;;;;;;;;;;26.67;43.63;102359.78;7354081;19;20336;-58
2023/05/24 11:49:15;;;;;;;;;;;;;;;27.03;42.94;102360.06;7352124;19;19914;-58
2023/05/24 11:51:41;;;;;;;;;;;;;;;27.45;43.04;102358.19;7353408;19;19919;-57
2023/05/24 11:54:06;;;;;;;;;;;;;;;27.88;42.72;102366.03;7354575;19;19929;-59
2023/05/24 11:56:31;;;;;;;;;;;;;;;28.26;42.03;102362.44;7350310;19;20498;-57
2023/05/24 11:59:15;;;;;;;;;;;;;;;28.64;41.87;102360.59;7349186;19;19919;-57
2023/05/24 12:01:41;;;;;;;;;;;;;;;29.06;42.01;102369.16;7356841;19;20461;-57
2023/05/24 12:04:08;;;;;;;;;;;;;;;29.45;41.40;102373.38;7353185;19;20010;-58
2023/05/24 12:06:38;;;;;;;;;;;;;;;29.80;40.84;102364.41;7352145;19;19938;-57
2023/05/24 12:09:09;;;;;;;;;;;;;;;30.12;40.34;102361.94;7351312;19;19919;-57
2023/05/24 12:11:39;;;;;;;;;;;;;;;30.43;40.32;102359.47;7352460;19;20402;-57
2023/05/24 12:14:04;;;;;;;;;;;;;;;30.70;40.04;102356.38;7349951;19;19927;-58
2023/05/24 12:16:31;;;;;;;;;;;;;;;30.97;39.00;102358.63;7357133;19;19953;-58
2023/05/24 12:18:57;;;;;;;;;;;;;;;31.22;38.51;102350.19;7348830;19;19926;-58
2023/05/24 12:21:22;;;;;;;;;;;;;;;31.49;38.60;102349.72;7354442;19;19914;-57
2023/05/24 12:23:48;;;;;;;;;;;;;;;31.77;38.45;102345.50;7351423;19;19918;-57
2023/05/24 12:26:13;;;;;;;;;;;;;;;32.05;38.14;102353.94;7354280;19;19929;-58
2023/05/24 12:28:39;;;;;;;;;;;;;;;32.37;38.93;102361.06;7353330;19;19966;-57
2023/05/24 12:31:05;;;;;;;;;;;;;;;32.67;38.26;102347.47;7349686;19;19919;-58